Main page
METAR-TAF:

METAR-TAF

Airports :

Lytton, British Columbia, Canada

latitude: 50-14N, longitude: 121-35W, elevation: 229 m

Current weather observation

The report was made 7 hours and 9 minutes ago, at 20:00 UTC
Wind 20 kt from the South with gusts up to 31 kt, varying between South/Southeast and Southwest
Temperature 20°C
Humidity 37%
Pressure 1010 hPa
Visibility: 14.5 km
Overcast at a height of 10000 ft

METAR: CWLY 232000Z AUTO 19020G31KT 150V220 9SM OVC100 20/05 A2983 RMK SLP102 DENSITY ALT 1600FT

Time: 20:09 (03:09 UTC)


TAF: missing

Weather observations and forecasts of more than 4000 airports (METAR and TAF reports).

The available stations are represented by yellow and red dots on the map.

Hover mouse over dot to see the name of the station.

Then click to see weather observations and forecasts.

To change the map : click on the green buttons with a black cross to zoom in, on the green button with a dash to zoom out, or on the green arrows for adjacent maps.


METAR-TAF: